Russell Municipal Airport Russell US
ICAO: KRSL
IATA: RSL
Category: Medium
Scheduled Services: No

Elevation: 1862 ft
TransAlt. 18000 ft.

Airport Communications:
ASOS:128.325
KANSAS CITY CNTR:124.4
WICHITA RDO:122.6
CTAF/UNICOM:122.7

KRSL Zoom In..

If you have problems with the map follow the link
https://www.worldairports.se/pages/airport.php?
ICAO=KRSL

Runways:

(A) RW 03 length 1620 ft width 300 ft
---- / hdg 33

(B) RW 17 length 5000 ft width 75 ft
---- / hdg 167

(C) RW 21 length 1620 ft width 300 ft
---- / hdg 213

(D) RW 35 length 5000 ft width 75 ft
---- / hdg 347

Location; KRSL
Day. 10 / Time. 02.53 Zulu
* Altimeter: 30.10
* Temperature: -04° c. -24.8°f.
* Wind from: 270° Speed 03 kn.
Dewpoint: -12° c.
Visibility: 10 Statute Miles.
Clouds: Clear (automated report).

KRSL 100253Z AUTO 27003KT 10SM CLR M04/M12 A3010 RMK AO2 SLP218 T10441117 51010


Wind From 270°
Speed 03 kn.

 
 
jpsmedia worldairports.se 2019   terms of use